createdAt,value
2023-08-15T00:00:29.609Z,21.78
2023-08-15T00:00:59.640Z,21.77
2023-08-15T00:01:29.599Z,21.78
2023-08-15T00:01:59.606Z,21.78
2023-08-15T00:02:29.634Z,21.78
2023-08-15T00:02:59.638Z,21.76
2023-08-15T00:03:29.712Z,21.75
2023-08-15T00:03:59.649Z,21.74
2023-08-15T00:04:29.603Z,21.71
2023-08-15T00:04:59.592Z,21.68
2023-08-15T00:05:29.607Z,21.65
2023-08-15T00:05:59.601Z,21.62
2023-08-15T00:06:29.611Z,21.59
2023-08-15T00:06:59.606Z,21.57
2023-08-15T00:07:29.597Z,21.54
2023-08-15T00:07:59.599Z,21.51
2023-08-15T00:08:29.597Z,21.48
2023-08-15T00:08:59.592Z,21.45
2023-08-15T00:09:29.595Z,21.42
2023-08-15T00:09:59.594Z,21.38
2023-08-15T00:10:29.596Z,21.35
2023-08-15T00:10:59.601Z,21.32
2023-08-15T00:11:29.595Z,21.29
2023-08-15T00:11:59.592Z,21.26
2023-08-15T00:12:29.594Z,21.24
2023-08-15T00:12:59.592Z,21.22
2023-08-15T00:13:29.593Z,21.22
2023-08-15T00:13:59.612Z,21.2
2023-08-15T00:14:29.593Z,21.2
2023-08-15T00:14:59.594Z,21.19
2023-08-15T00:15:29.598Z,21.18
2023-08-15T00:15:59.600Z,21.17
2023-08-15T00:16:29.658Z,21.16
2023-08-15T00:16:59.643Z,21.15
2023-08-15T00:17:29.629Z,21.15
2023-08-15T00:17:59.644Z,21.14
2023-08-15T00:18:29.599Z,21.14
2023-08-15T00:18:59.606Z,21.15
2023-08-15T00:19:29.602Z,21.17
2023-08-15T00:19:59.607Z,21.18
2023-08-15T00:20:29.597Z,21.2
2023-08-15T00:20:59.596Z,21.21
2023-08-15T00:21:29.598Z,21.22
2023-08-15T00:21:59.599Z,21.23
2023-08-15T00:22:29.598Z,21.24
2023-08-15T00:22:59.610Z,21.25
2023-08-15T00:23:29.600Z,21.26
2023-08-15T00:23:59.612Z,21.27
2023-08-15T00:24:29.602Z,21.28
2023-08-15T00:24:59.603Z,21.29
2023-08-15T00:25:29.605Z,21.31
2023-08-15T00:25:59.609Z,21.32
2023-08-15T00:26:29.600Z,21.34
2023-08-15T00:26:59.608Z,21.35
2023-08-15T00:27:29.616Z,21.36
2023-08-15T00:27:59.613Z,21.36
2023-08-15T00:28:29.601Z,21.36
2023-08-15T00:28:59.603Z,21.36
2023-08-15T00:29:29.602Z,21.36
2023-08-15T00:29:59.618Z,21.35
2023-08-15T00:30:29.604Z,21.34
2023-08-15T00:30:59.651Z,21.32
2023-08-15T00:31:29.684Z,21.3
2023-08-15T00:31:59.610Z,21.28
2023-08-15T00:32:29.626Z,21.25
2023-08-15T00:32:59.645Z,21.22
2023-08-15T00:33:29.604Z,21.19
2023-08-15T00:33:59.611Z,21.17
2023-08-15T00:34:29.620Z,21.14
2023-08-15T00:34:59.626Z,21.12
2023-08-15T00:35:29.612Z,21.1
2023-08-15T00:35:59.615Z,21.09
2023-08-15T00:36:29.623Z,21.09
2023-08-15T00:36:59.627Z,21.09
2023-08-15T00:37:29.614Z,21.11
2023-08-15T00:37:59.612Z,21.14
2023-08-15T00:38:29.612Z,21.16
2023-08-15T00:38:59.616Z,21.18
2023-08-15T00:39:29.611Z,21.18
2023-08-15T00:39:59.610Z,21.18
2023-08-15T00:40:29.633Z,21.18
2023-08-15T00:40:59.623Z,21.19
2023-08-15T00:41:29.610Z,21.2
2023-08-15T00:41:59.617Z,21.21
2023-08-15T00:42:29.605Z,21.21
2023-08-15T00:42:59.610Z,21.21
2023-08-15T00:43:29.615Z,21.2
2023-08-15T00:43:59.740Z,21.17
2023-08-15T00:44:29.611Z,21.16
2023-08-15T00:44:59.616Z,21.14
2023-08-15T00:45:29.610Z,21.12
2023-08-15T00:45:59.629Z,21.1
2023-08-15T00:46:29.646Z,21.08
2023-08-15T00:46:59.615Z,21.07
2023-08-15T00:47:29.636Z,21.05
2023-08-15T00:47:59.701Z,21.04
2023-08-15T00:48:29.612Z,21.04
2023-08-15T00:48:59.616Z,21.03
2023-08-15T00:49:29.618Z,21.03
2023-08-15T00:49:59.611Z,21.04
2023-08-15T00:50:29.622Z,21.06
2023-08-15T00:50:59.621Z,21.07
2023-08-15T00:51:29.614Z,21.07
2023-08-15T00:51:59.617Z,21.07
2023-08-15T00:52:29.619Z,21.06
2023-08-15T00:52:59.618Z,21.05
2023-08-15T00:53:29.618Z,21.03
2023-08-15T00:53:59.619Z,21
2023-08-15T00:54:29.612Z,20.97
2023-08-15T00:54:59.612Z,20.94
2023-08-15T00:55:29.612Z,20.93
2023-08-15T00:55:59.616Z,20.92
2023-08-15T00:56:29.637Z,20.91
2023-08-15T00:56:59.623Z,20.89
2023-08-15T00:57:29.622Z,20.88
2023-08-15T00:57:59.623Z,20.86
2023-08-15T00:58:29.624Z,20.84
2023-08-15T00:58:59.617Z,20.83
2023-08-15T00:59:29.640Z,20.82
2023-08-15T00:59:59.634Z,20.81
2023-08-15T01:00:29.616Z,20.79
2023-08-15T01:00:59.616Z,20.78
2023-08-15T01:01:29.682Z,20.77
2023-08-15T01:01:59.673Z,20.76
2023-08-15T01:02:29.692Z,20.75
2023-08-15T01:02:59.722Z,20.72
2023-08-15T01:03:29.713Z,20.72
2023-08-15T01:03:59.650Z,20.72
2023-08-15T01:04:29.620Z,20.72
2023-08-15T01:04:59.625Z,20.73
2023-08-15T01:05:29.631Z,20.72
2023-08-15T01:05:59.630Z,20.72
2023-08-15T01:06:29.626Z,20.72
2023-08-15T01:06:59.621Z,20.72
2023-08-15T01:07:29.619Z,20.72
2023-08-15T01:07:59.622Z,20.72
2023-08-15T01:08:29.638Z,20.73
2023-08-15T01:08:59.627Z,20.75
2023-08-15T01:09:29.622Z,20.76
2023-08-15T01:09:59.623Z,20.78
2023-08-15T01:10:29.629Z,20.81
2023-08-15T01:10:59.621Z,20.83
2023-08-15T01:11:29.624Z,20.85
2023-08-15T01:11:59.622Z,20.87
2023-08-15T01:12:29.625Z,20.89
2023-08-15T01:12:59.625Z,20.9
2023-08-15T01:13:29.625Z,20.91
2023-08-15T01:13:59.627Z,20.91
2023-08-15T01:14:29.623Z,20.91
2023-08-15T01:14:59.622Z,20.92
2023-08-15T01:15:29.626Z,20.92
2023-08-15T01:15:59.747Z,20.91
2023-08-15T01:16:29.775Z,20.91
2023-08-15T01:16:59.624Z,20.92
2023-08-15T01:17:29.649Z,20.94
2023-08-15T01:17:59.660Z,20.96
2023-08-15T01:18:29.629Z,20.97
2023-08-15T01:18:59.658Z,20.97
2023-08-15T01:19:29.626Z,20.98
2023-08-15T01:19:59.632Z,20.98
2023-08-15T01:20:29.635Z,20.98
2023-08-15T01:20:59.641Z,20.99
2023-08-15T01:21:29.630Z,21
2023-08-15T01:21:59.633Z,21.02
2023-08-15T01:22:29.627Z,21.03
2023-08-15T01:22:59.628Z,21.04
2023-08-15T01:23:29.632Z,21.04
2023-08-15T01:23:59.637Z,21.04
2023-08-15T01:24:29.631Z,21.04
2023-08-15T01:24:59.626Z,21.03
2023-08-15T01:25:29.650Z,21.01
2023-08-15T01:25:59.649Z,21
2023-08-15T01:26:29.626Z,20.98
2023-08-15T01:26:59.644Z,20.97
2023-08-15T01:27:29.630Z,20.97
2023-08-15T01:27:59.632Z,20.97
2023-08-15T01:28:29.637Z,20.98
2023-08-15T01:28:59.635Z,20.99
2023-08-15T01:29:29.641Z,21.01
2023-08-15T01:29:59.648Z,21.02
2023-08-15T01:30:29.640Z,21.04
2023-08-15T01:30:59.632Z,21.06
2023-08-15T01:31:29.668Z,21.08
2023-08-15T01:31:59.718Z,21.08
2023-08-15T01:32:29.652Z,21.09
2023-08-15T01:32:59.684Z,21.11
2023-08-15T01:33:29.628Z,21.12
2023-08-15T01:33:59.631Z,21.12
2023-08-15T01:34:29.636Z,21.12
2023-08-15T01:34:59.640Z,21.12
2023-08-15T01:35:29.640Z,21.12
2023-08-15T01:35:59.642Z,21.12
2023-08-15T01:36:29.635Z,21.12
2023-08-15T01:36:59.644Z,21.12
2023-08-15T01:37:29.640Z,21.12
2023-08-15T01:37:59.645Z,21.11
2023-08-15T01:38:29.644Z,21.1
2023-08-15T01:38:59.632Z,21.09
2023-08-15T01:39:29.635Z,21.08
2023-08-15T01:39:59.641Z,21.07
2023-08-15T01:40:29.646Z,21.06
2023-08-15T01:40:59.637Z,21.05
2023-08-15T01:41:29.636Z,21.04
2023-08-15T01:41:59.638Z,21.03
2023-08-15T01:42:29.642Z,21.03
2023-08-15T01:42:59.638Z,21.03
2023-08-15T01:43:29.635Z,21.03
2023-08-15T01:43:59.640Z,21.03
2023-08-15T01:44:29.640Z,21.04
2023-08-15T01:44:59.639Z,21.05
2023-08-15T01:45:29.640Z,21.06
2023-08-15T01:45:59.683Z,21.07
2023-08-15T01:46:29.644Z,21.08
2023-08-15T01:46:59.643Z,21.09
2023-08-15T01:47:29.696Z,21.11
2023-08-15T01:47:59.673Z,21.12
2023-08-15T01:48:29.640Z,21.14
2023-08-15T01:48:59.639Z,21.16
2023-08-15T01:49:29.638Z,21.18
2023-08-15T01:49:59.639Z,21.2
2023-08-15T01:50:29.646Z,21.22
2023-08-15T01:50:59.646Z,21.24
2023-08-15T01:51:29.663Z,21.26
2023-08-15T01:51:59.665Z,21.26
2023-08-15T01:52:29.718Z,21.26
2023-08-15T01:52:59.647Z,21.27
2023-08-15T01:53:29.645Z,21.27
2023-08-15T01:53:59.642Z,21.28
2023-08-15T01:54:29.642Z,21.29
2023-08-15T01:54:59.647Z,21.3
2023-08-15T01:55:29.643Z,21.33
2023-08-15T01:55:59.643Z,21.37
2023-08-15T01:56:29.643Z,21.41
2023-08-15T01:56:59.646Z,21.45
2023-08-15T01:57:29.659Z,21.49
2023-08-15T01:57:59.651Z,21.53
2023-08-15T01:58:29.645Z,21.57
2023-08-15T01:58:59.645Z,21.6
2023-08-15T01:59:29.643Z,21.63
2023-08-15T01:59:59.643Z,21.67
2023-08-15T02:00:29.646Z,21.7
2023-08-15T02:00:59.711Z,21.74
2023-08-15T02:01:29.679Z,21.77
2023-08-15T02:01:59.648Z,21.79
2023-08-15T02:02:29.676Z,21.82
2023-08-15T02:02:59.727Z,21.84
2023-08-15T02:03:29.648Z,21.88
2023-08-15T02:03:59.646Z,21.92
2023-08-15T02:04:29.645Z,21.96
2023-08-15T02:04:59.705Z,21.99
2023-08-15T02:05:29.702Z,22.01
2023-08-15T02:05:59.692Z,22.04
2023-08-15T02:06:29.654Z,22.06
2023-08-15T02:06:59.648Z,22.08
2023-08-15T02:07:29.686Z,22.1
2023-08-15T02:07:59.667Z,22.1
2023-08-15T02:08:29.658Z,22.09
2023-08-15T02:08:59.660Z,22.09
2023-08-15T02:09:29.648Z,22.08
2023-08-15T02:09:59.648Z,22.07
2023-08-15T02:10:29.652Z,22.06
2023-08-15T02:10:59.728Z,22.05
2023-08-15T02:11:29.646Z,22.03
2023-08-15T02:11:59.664Z,22.03
2023-08-15T02:12:29.657Z,22.01
2023-08-15T02:12:59.654Z,22.01
2023-08-15T02:13:29.649Z,22
2023-08-15T02:13:59.666Z,22
2023-08-15T02:14:29.654Z,21.99
2023-08-15T02:14:59.650Z,21.98
2023-08-15T02:15:29.709Z,21.97
2023-08-15T02:15:59.666Z,21.96
2023-08-15T02:16:29.651Z,21.95
2023-08-15T02:16:59.676Z,21.95
2023-08-15T02:17:29.659Z,21.94
2023-08-15T02:17:59.778Z,21.93
2023-08-15T02:18:29.662Z,21.92
2023-08-15T02:18:59.654Z,21.92
2023-08-15T02:19:29.663Z,21.92
2023-08-15T02:19:59.677Z,21.92
2023-08-15T02:20:29.651Z,21.92
2023-08-15T02:20:59.663Z,21.92
2023-08-15T02:21:29.660Z,21.92
2023-08-15T02:21:59.667Z,21.9
2023-08-15T02:22:29.657Z,21.89
2023-08-15T02:22:59.662Z,21.88
2023-08-15T02:23:29.658Z,21.86
2023-08-15T02:23:59.654Z,21.85
2023-08-15T02:24:29.656Z,21.84
2023-08-15T02:24:59.658Z,21.83
2023-08-15T02:25:29.665Z,21.82
2023-08-15T02:25:59.663Z,21.8
2023-08-15T02:26:29.665Z,21.79
2023-08-15T02:26:59.660Z,21.79
2023-08-15T02:27:29.663Z,21.78
2023-08-15T02:27:59.670Z,21.79
2023-08-15T02:28:29.669Z,21.79
2023-08-15T02:28:59.659Z,21.8
2023-08-15T02:29:29.660Z,21.81
2023-08-15T02:29:59.663Z,21.82
2023-08-15T02:30:29.666Z,21.84
2023-08-15T02:30:59.728Z,21.86
2023-08-15T02:31:29.668Z,21.88
2023-08-15T02:31:59.664Z,21.89
2023-08-15T02:32:29.694Z,21.89
2023-08-15T02:32:59.694Z,21.89
2023-08-15T02:33:29.665Z,21.88
2023-08-15T02:33:59.662Z,21.88
2023-08-15T02:34:29.661Z,21.87
2023-08-15T02:34:59.667Z,21.86
2023-08-15T02:35:29.670Z,21.85
2023-08-15T02:35:59.666Z,21.83
2023-08-15T02:36:29.661Z,21.82
2023-08-15T02:36:59.680Z,21.81
2023-08-15T02:37:29.679Z,21.78
2023-08-15T02:37:59.671Z,21.77
2023-08-15T02:38:29.668Z,21.76
2023-08-15T02:38:59.677Z,21.73
2023-08-15T02:39:29.661Z,21.71
2023-08-15T02:39:59.670Z,21.7
2023-08-15T02:40:29.669Z,21.69
2023-08-15T02:40:59.673Z,21.68
2023-08-15T02:41:29.670Z,21.68
2023-08-15T02:41:59.668Z,21.69
2023-08-15T02:42:29.661Z,21.7
2023-08-15T02:42:59.673Z,21.72
2023-08-15T02:43:29.665Z,21.74
2023-08-15T02:43:59.674Z,21.75
2023-08-15T02:44:29.671Z,21.76
2023-08-15T02:44:59.673Z,21.77
2023-08-15T02:45:29.662Z,21.79
2023-08-15T02:45:59.676Z,21.8
2023-08-15T02:46:29.829Z,21.81
2023-08-15T02:46:59.679Z,21.82
2023-08-15T02:47:29.675Z,21.83
2023-08-15T02:47:59.751Z,21.84
2023-08-15T02:48:29.672Z,21.85
2023-08-15T02:48:59.669Z,21.87
2023-08-15T02:49:29.668Z,21.89
2023-08-15T02:49:59.671Z,21.91
2023-08-15T02:50:29.682Z,21.92
2023-08-15T02:50:59.676Z,21.94
2023-08-15T02:51:29.671Z,21.95
2023-08-15T02:51:59.686Z,21.97
2023-08-15T02:52:29.670Z,21.99
2023-08-15T02:52:59.678Z,22.01
2023-08-15T02:53:29.672Z,22.03
2023-08-15T02:53:59.673Z,22.04
2023-08-15T02:54:29.682Z,22.06
2023-08-15T02:54:59.687Z,22.06
2023-08-15T02:55:29.670Z,22.05
2023-08-15T02:55:59.688Z,22.04
2023-08-15T02:56:29.670Z,22.03
2023-08-15T02:56:59.678Z,22.03
2023-08-15T02:57:29.679Z,22.02
2023-08-15T02:57:59.684Z,22.01
2023-08-15T02:58:29.671Z,21.99
2023-08-15T02:58:59.686Z,21.98
2023-08-15T02:59:29.674Z,21.96
2023-08-15T02:59:59.675Z,21.94
2023-08-15T03:00:29.671Z,21.93
2023-08-15T03:00:59.720Z,21.91
2023-08-15T03:01:29.677Z,21.9
2023-08-15T03:01:59.712Z,21.89
2023-08-15T03:02:29.763Z,21.89
2023-08-15T03:02:59.730Z,21.89
2023-08-15T03:03:29.670Z,21.9
2023-08-15T03:03:59.690Z,21.9
2023-08-15T03:04:29.678Z,21.91
2023-08-15T03:04:59.679Z,21.92
2023-08-15T03:05:29.679Z,21.94
2023-08-15T03:05:59.682Z,21.96
2023-08-15T03:06:29.674Z,21.97
2023-08-15T03:06:59.688Z,21.99
2023-08-15T03:07:29.686Z,22.01
2023-08-15T03:07:59.690Z,22.03
2023-08-15T03:08:29.686Z,22.04
2023-08-15T03:08:59.680Z,22.06
2023-08-15T03:09:29.688Z,22.08
2023-08-15T03:09:59.686Z,22.09
2023-08-15T03:10:29.690Z,22.1
2023-08-15T03:10:59.691Z,22.1
2023-08-15T03:11:29.678Z,22.11
2023-08-15T03:11:59.691Z,22.11
2023-08-15T03:12:29.691Z,22.11
2023-08-15T03:12:59.690Z,22.12
2023-08-15T03:13:29.681Z,22.12
2023-08-15T03:13:59.682Z,22.13
2023-08-15T03:14:29.695Z,22.14
2023-08-15T03:14:59.676Z,22.15
2023-08-15T03:15:29.679Z,22.16
2023-08-15T03:15:59.683Z,22.16
2023-08-15T03:16:29.719Z,22.18
2023-08-15T03:16:59.688Z,22.2
2023-08-15T03:17:29.720Z,22.22
2023-08-15T03:17:59.771Z,22.25
2023-08-15T03:18:29.687Z,22.31
2023-08-15T03:18:59.686Z,22.37
2023-08-15T03:19:29.680Z,22.45
2023-08-15T03:19:59.691Z,22.53
2023-08-15T03:20:29.684Z,22.63
2023-08-15T03:20:59.687Z,22.73
2023-08-15T03:21:29.688Z,22.85
2023-08-15T03:21:59.686Z,22.97
2023-08-15T03:22:29.680Z,23.1
2023-08-15T03:22:59.690Z,23.23
2023-08-15T03:23:29.692Z,23.37
2023-08-15T03:23:59.698Z,23.5
2023-08-15T03:24:29.686Z,23.62
2023-08-15T03:24:59.691Z,23.73
2023-08-15T03:25:29.693Z,23.83
2023-08-15T03:25:59.695Z,23.91
2023-08-15T03:26:29.685Z,23.96
2023-08-15T03:27:02.189Z,24.01
2023-08-15T03:27:30.845Z,24.07
2023-08-15T03:27:59.716Z,24.12
2023-08-15T03:28:29.700Z,24.2
2023-08-15T03:28:59.698Z,24.26
2023-08-15T03:29:29.695Z,24.31
2023-08-15T03:29:59.693Z,24.35
2023-08-15T03:30:29.698Z,24.37
2023-08-15T03:30:59.712Z,24.38
2023-08-15T03:31:29.748Z,24.37
2023-08-15T03:31:59.701Z,24.36
2023-08-15T03:32:29.706Z,24.3
2023-08-15T03:32:59.722Z,24.25
2023-08-15T03:33:29.687Z,24.17
2023-08-15T03:33:59.693Z,24.09
2023-08-15T03:34:29.689Z,24.04
2023-08-15T03:34:59.694Z,23.99
2023-08-15T03:35:29.688Z,23.94
2023-08-15T03:35:59.698Z,23.88
2023-08-15T03:36:29.694Z,23.82
2023-08-15T03:36:59.692Z,23.76
2023-08-15T03:37:29.692Z,23.68
2023-08-15T03:37:59.689Z,23.61
2023-08-15T03:38:29.695Z,23.54
2023-08-15T03:38:59.697Z,23.48
2023-08-15T03:39:29.698Z,23.41
2023-08-15T03:39:59.705Z,23.35
2023-08-15T03:40:29.706Z,23.3
2023-08-15T03:40:59.700Z,23.27
2023-08-15T03:41:29.694Z,23.22
2023-08-15T03:41:59.697Z,23.2
2023-08-15T03:42:29.692Z,23.19
2023-08-15T03:42:59.698Z,23.17
2023-08-15T03:43:29.697Z,23.16
2023-08-15T03:43:59.693Z,23.14
2023-08-15T03:44:29.695Z,23.13
2023-08-15T03:44:59.707Z,23.14
2023-08-15T03:45:29.725Z,23.16
2023-08-15T03:45:59.806Z,23.2
2023-08-15T03:46:29.743Z,23.25
2023-08-15T03:46:59.776Z,23.32
2023-08-15T03:47:29.725Z,23.39
2023-08-15T03:47:59.726Z,23.43
2023-08-15T03:48:29.694Z,23.48
2023-08-15T03:48:59.709Z,23.54
2023-08-15T03:49:29.699Z,23.62
2023-08-15T03:49:59.701Z,23.71
2023-08-15T03:50:29.698Z,23.81
2023-08-15T03:50:59.702Z,23.91
2023-08-15T03:51:45.508Z,24.01
2023-08-15T03:52:00.851Z,24.12
2023-08-15T03:52:29.694Z,24.17
2023-08-15T03:52:59.705Z,24.19
2023-08-15T03:53:29.694Z,24.15
2023-08-15T03:53:59.704Z,24.09
2023-08-15T03:54:29.698Z,24
2023-08-15T03:54:59.708Z,23.91
2023-08-15T03:55:29.710Z,23.81
2023-08-15T03:55:59.716Z,23.72
2023-08-15T03:56:29.707Z,23.64
2023-08-15T03:56:59.714Z,23.58
2023-08-15T03:57:29.702Z,23.53
2023-08-15T03:57:59.708Z,23.5
2023-08-15T03:58:29.706Z,23.47
2023-08-15T03:58:59.702Z,23.47
2023-08-15T03:59:29.721Z,23.48
2023-08-15T03:59:59.702Z,23.49
2023-08-15T04:00:29.699Z,23.52
2023-08-15T04:00:59.718Z,23.56
2023-08-15T04:01:29.728Z,23.61
2023-08-15T04:01:59.746Z,23.67
2023-08-15T04:02:29.764Z,23.82
2023-08-15T04:02:59.732Z,24.13
2023-08-15T04:03:29.740Z,24.51
2023-08-15T04:03:59.736Z,24.89
2023-08-15T04:04:29.703Z,25.28
2023-08-15T04:04:59.704Z,25.69
2023-08-15T04:05:29.706Z,26.09
2023-08-15T04:05:59.725Z,26.48
2023-08-15T04:06:29.702Z,26.8
2023-08-15T04:06:59.708Z,27.17
2023-08-15T04:07:29.702Z,27.59
2023-08-15T04:07:59.704Z,28.01
2023-08-15T04:08:29.699Z,28.36
2023-08-15T04:08:59.723Z,28.8
2023-08-15T04:09:29.702Z,29.21
2023-08-15T04:09:59.711Z,29.53
2023-08-15T04:10:29.715Z,29.73
2023-08-15T04:10:59.714Z,29.91
2023-08-15T04:11:29.711Z,30.11
2023-08-15T04:11:59.718Z,30.17
2023-08-15T04:12:29.704Z,30.37
2023-08-15T04:12:59.726Z,30.89
2023-08-15T04:13:29.707Z,31.59
2023-08-15T04:13:59.710Z,32.3
2023-08-15T04:14:29.718Z,32.95
2023-08-15T04:14:59.711Z,33.5
2023-08-15T04:15:29.704Z,33.99
2023-08-15T04:15:59.785Z,34.37
2023-08-15T04:16:29.798Z,34.83
2023-08-15T04:16:59.707Z,35.12
2023-08-15T04:17:29.734Z,35.41
2023-08-15T04:17:59.752Z,35.76
2023-08-15T04:18:29.713Z,36.11
2023-08-15T04:18:59.719Z,36.41
2023-08-15T04:19:29.705Z,36.62
2023-08-15T04:19:59.721Z,36.73
2023-08-15T04:20:29.706Z,36.66
2023-08-15T04:20:59.725Z,36.44
2023-08-15T04:21:29.714Z,36.33
2023-08-15T04:21:59.715Z,36.24
2023-08-15T04:22:29.711Z,36.19
2023-08-15T04:22:59.711Z,35.83
2023-08-15T04:23:29.717Z,35.38
2023-08-15T04:23:59.716Z,34.85
2023-08-15T04:24:29.734Z,34.3
2023-08-15T04:24:59.730Z,33.78
2023-08-15T04:25:31.752Z,33.28
2023-08-15T04:25:59.718Z,32.8
2023-08-15T04:26:29.721Z,32.35
2023-08-15T04:26:59.723Z,31.92
2023-08-15T04:27:29.724Z,31.5
2023-08-15T04:27:59.720Z,31.1
2023-08-15T04:28:29.738Z,30.74
2023-08-15T04:28:59.740Z,30.45
2023-08-15T04:29:29.712Z,30.22
2023-08-15T04:29:59.752Z,30.05
2023-08-15T04:30:29.710Z,29.94
2023-08-15T04:30:59.741Z,29.96
2023-08-15T04:31:29.756Z,30.07
2023-08-15T04:31:59.774Z,30.26
2023-08-15T04:32:29.766Z,30.63
2023-08-15T04:32:59.882Z,31.15
2023-08-15T04:33:29.722Z,31.88
2023-08-15T04:33:59.718Z,32.71
2023-08-15T04:34:29.712Z,33.45
2023-08-15T04:34:59.730Z,34.04
2023-08-15T04:35:29.725Z,34.29
2023-08-15T04:35:59.725Z,34.32
2023-08-15T04:36:29.745Z,34.08
2023-08-15T04:36:59.723Z,33.71
2023-08-15T04:37:29.719Z,33.24
2023-08-15T04:37:59.719Z,32.74
2023-08-15T04:38:29.718Z,32.17
2023-08-15T04:38:59.736Z,31.58
2023-08-15T04:39:29.718Z,31
2023-08-15T04:39:59.758Z,30.42
2023-08-15T04:40:29.786Z,29.87
2023-08-15T04:40:59.726Z,29.35
2023-08-15T04:41:29.719Z,28.89
2023-08-15T04:41:59.726Z,28.46
2023-08-15T04:42:29.720Z,28.07
2023-08-15T04:42:59.728Z,27.86
2023-08-15T04:43:29.723Z,27.98
2023-08-15T04:43:59.722Z,28.26
2023-08-15T04:44:29.728Z,28.62
2023-08-15T04:44:59.721Z,29.04
2023-08-15T04:45:29.719Z,29.51
2023-08-15T04:45:59.755Z,29.85
2023-08-15T04:46:29.775Z,30.12
2023-08-15T04:46:59.723Z,30.29
2023-08-15T04:47:29.720Z,30.35
2023-08-15T04:47:59.786Z,30.39
2023-08-15T04:48:29.720Z,30.48
2023-08-15T04:48:59.722Z,30.62
2023-08-15T04:49:29.725Z,30.86
2023-08-15T04:49:59.723Z,31.18
2023-08-15T04:50:29.741Z,31.48
2023-08-15T04:50:59.720Z,31.87
2023-08-15T04:51:29.727Z,32.16
2023-08-15T04:51:59.726Z,32.42
2023-08-15T04:52:29.722Z,32.6
2023-08-15T04:52:59.727Z,32.73
2023-08-15T04:53:29.719Z,32.79
2023-08-15T04:53:59.723Z,32.57
2023-08-15T04:54:29.728Z,32.22
2023-08-15T04:54:59.722Z,32
2023-08-15T04:55:29.725Z,31.9
2023-08-15T04:55:59.725Z,31.85
2023-08-15T04:56:29.724Z,31.77
2023-08-15T04:56:59.729Z,31.71
2023-08-15T04:57:29.733Z,31.59
2023-08-15T04:57:59.729Z,31.44
2023-08-15T04:58:29.732Z,31.2
2023-08-15T04:58:59.732Z,30.88
2023-08-15T04:59:29.729Z,30.64
2023-08-15T04:59:59.727Z,30.44
2023-08-15T05:00:32.294Z,30.26
2023-08-15T05:01:00.936Z,30.09
2023-08-15T05:01:29.797Z,29.96
2023-08-15T05:01:59.734Z,29.83
2023-08-15T05:02:29.758Z,29.69
2023-08-15T05:02:59.745Z,29.59
2023-08-15T05:03:29.748Z,29.54
2023-08-15T05:03:59.745Z,29.51
2023-08-15T05:04:29.735Z,29.48
2023-08-15T05:04:59.743Z,29.49
2023-08-15T05:05:29.857Z,29.52
2023-08-15T05:05:59.735Z,29.54
2023-08-15T05:06:29.731Z,29.57
2023-08-15T05:06:59.739Z,29.61
2023-08-15T05:07:29.732Z,29.68
2023-08-15T05:07:59.750Z,29.8
2023-08-15T05:08:29.729Z,29.96
2023-08-15T05:08:59.738Z,30.07
2023-08-15T05:09:29.734Z,30.11
2023-08-15T05:09:59.737Z,30.08
2023-08-15T05:10:29.758Z,29.96
2023-08-15T05:10:59.736Z,29.89
2023-08-15T05:11:29.739Z,29.91
2023-08-15T05:11:59.742Z,29.95
2023-08-15T05:12:29.748Z,29.89
2023-08-15T05:12:59.745Z,29.85
2023-08-15T05:13:29.736Z,29.82
2023-08-15T05:13:59.752Z,29.77
2023-08-15T05:14:29.735Z,29.8
2023-08-15T05:14:59.755Z,29.74
2023-08-15T05:15:29.781Z,29.74
2023-08-15T05:15:59.781Z,29.71
2023-08-15T05:16:29.747Z,29.63
2023-08-15T05:16:59.738Z,29.56
2023-08-15T05:17:31.842Z,29.54
2023-08-15T05:17:59.900Z,29.51
2023-08-15T05:18:29.744Z,29.46
2023-08-15T05:18:59.741Z,29.46
2023-08-15T05:19:29.738Z,29.51
2023-08-15T05:19:59.743Z,29.53
2023-08-15T05:20:29.771Z,29.56
2023-08-15T05:20:59.749Z,29.61
2023-08-15T05:21:29.787Z,29.66
2023-08-15T05:21:59.806Z,29.73
2023-08-15T05:22:29.738Z,29.8
2023-08-15T05:22:59.742Z,29.88
2023-08-15T05:23:29.744Z,29.92
2023-08-15T05:23:59.765Z,30.01
2023-08-15T05:24:29.771Z,30.1
2023-08-15T05:24:59.759Z,30.26
2023-08-15T05:25:29.744Z,30.54
2023-08-15T05:25:59.763Z,30.92
2023-08-15T05:26:29.745Z,31.42
2023-08-15T05:26:59.755Z,31.99
2023-08-15T05:27:29.746Z,32.46
2023-08-15T05:27:59.752Z,32.8
2023-08-15T05:28:29.752Z,32.99
2023-08-15T05:28:59.754Z,32.95
2023-08-15T05:29:29.751Z,32.81
2023-08-15T05:29:59.760Z,32.75
2023-08-15T05:30:29.748Z,32.75
2023-08-15T05:30:59.759Z,32.73
2023-08-15T05:31:29.776Z,32.72
2023-08-15T05:31:59.755Z,32.69
2023-08-15T05:32:29.768Z,32.74
2023-08-15T05:32:59.806Z,32.89
2023-08-15T05:33:29.744Z,33.05
2023-08-15T05:33:59.781Z,33.31
2023-08-15T05:34:29.749Z,33.72
2023-08-15T05:34:59.768Z,34.28
2023-08-15T05:35:29.750Z,34.9
2023-08-15T05:35:59.754Z,35.52
2023-08-15T05:36:29.752Z,36.04
2023-08-15T05:36:59.748Z,36.34
2023-08-15T05:37:29.753Z,36.62
2023-08-15T05:37:59.749Z,36.98
2023-08-15T05:38:29.755Z,37.38
2023-08-15T05:38:59.747Z,37.8
2023-08-15T05:39:29.749Z,38.26
2023-08-15T05:40:01.279Z,38.83
2023-08-15T05:40:31.165Z,39.34
2023-08-15T05:40:59.760Z,39.91
2023-08-15T05:41:29.748Z,40.64
2023-08-15T05:41:59.751Z,41.49
2023-08-15T05:42:29.746Z,42.2
2023-08-15T05:42:59.772Z,42.71
2023-08-15T05:43:29.795Z,43.2
2023-08-15T05:43:59.757Z,43.74
2023-08-15T05:44:29.758Z,44.38
2023-08-15T05:44:59.764Z,45.01
2023-08-15T05:45:29.763Z,45.7
2023-08-15T05:45:59.752Z,46.26
2023-08-15T05:46:29.793Z,46.76
2023-08-15T05:46:59.816Z,47.24
2023-08-15T05:47:29.779Z,47.68
2023-08-15T05:47:59.784Z,48.06
2023-08-15T05:48:29.756Z,48.26
2023-08-15T05:48:59.755Z,48.31
2023-08-15T05:49:29.764Z,48.17
2023-08-15T05:49:59.755Z,48.12
2023-08-15T05:50:29.779Z,48.06
2023-08-15T05:50:59.765Z,48.05
2023-08-15T05:51:29.756Z,48.12
2023-08-15T05:51:59.753Z,48.11
2023-08-15T05:52:29.753Z,48.18
2023-08-15T05:52:59.755Z,48.17
2023-08-15T05:53:29.758Z,48.18
2023-08-15T05:53:59.761Z,48.15
2023-08-15T05:54:29.758Z,48.2
2023-08-15T05:54:59.755Z,47.99
2023-08-15T05:55:29.755Z,47.83
2023-08-15T05:55:59.764Z,47.86
2023-08-15T05:56:29.760Z,47.98
2023-08-15T05:56:59.762Z,48.12
2023-08-15T05:57:29.759Z,48.15
2023-08-15T05:57:59.756Z,48.27
2023-08-15T05:58:29.763Z,48.33
2023-08-15T05:58:59.796Z,48.44
2023-08-15T05:59:29.760Z,48.55
2023-08-15T05:59:59.772Z,48.74
2023-08-15T06:00:29.762Z,48.68
2023-08-15T06:00:59.809Z,48.82
2023-08-15T06:01:29.762Z,49.08
2023-08-15T06:01:59.763Z,49.35
2023-08-15T06:02:29.858Z,49.43
2023-08-15T06:02:59.885Z,49.36
2023-08-15T06:03:49.379Z,49.33
2023-08-15T06:04:00.923Z,49.27
2023-08-15T06:04:29.802Z,49.28
2023-08-15T06:04:59.772Z,49.52
2023-08-15T06:05:29.763Z,49.75
2023-08-15T06:05:59.761Z,49.87
2023-08-15T06:06:29.778Z,49.53
2023-08-15T06:06:59.760Z,49.22
2023-08-15T06:07:29.766Z,49
2023-08-15T06:07:59.763Z,48.86
2023-08-15T06:08:29.761Z,48.82
2023-08-15T06:08:59.761Z,48.93
2023-08-15T06:09:29.764Z,49.28
2023-08-15T06:09:59.779Z,49.67
2023-08-15T06:10:29.767Z,50.06
2023-08-15T06:10:59.761Z,50.32
2023-08-15T06:11:29.775Z,50.45
2023-08-15T06:11:59.783Z,50.48
2023-08-15T06:12:29.765Z,50.56
2023-08-15T06:12:59.775Z,50.67
2023-08-15T06:13:29.765Z,50.79
2023-08-15T06:13:59.775Z,50.9
2023-08-15T06:14:29.771Z,51.11
2023-08-15T06:14:59.773Z,51.31
2023-08-15T06:15:29.772Z,51.49
2023-08-15T06:15:59.779Z,51.66
2023-08-15T06:16:29.788Z,51.55
2023-08-15T06:16:59.813Z,51.51
2023-08-15T06:17:29.791Z,51.54
2023-08-15T06:17:59.815Z,51.64
2023-08-15T06:18:29.773Z,51.79
2023-08-15T06:18:59.768Z,51.99
2023-08-15T06:19:29.771Z,52.15
2023-08-15T06:19:59.770Z,51.96
2023-08-15T06:20:29.771Z,51.61
2023-08-15T06:20:59.772Z,51.07
2023-08-15T06:21:29.777Z,50.68
2023-08-15T06:21:59.772Z,50.64
2023-08-15T06:22:29.768Z,50.81
2023-08-15T06:22:59.822Z,51.05
2023-08-15T06:23:29.805Z,51.22
2023-08-15T06:23:59.770Z,51.47
2023-08-15T06:24:29.772Z,51.67
2023-08-15T06:24:59.774Z,51.31
2023-08-15T06:25:29.781Z,50.83
2023-08-15T06:25:59.778Z,50.49
2023-08-15T06:26:29.775Z,50.54
2023-08-15T06:26:59.781Z,50.68
2023-08-15T06:27:29.768Z,50.98
2023-08-15T06:27:59.779Z,51.39